Time;durP1;ratioP1;P1;durP2;ratioP2;P2;SDS_P1;SDS_P2;PMS_P1;PMS_P2;Temp;Humidity;BMP_temperature;BMP_pressure;BME280_temperature;BME280_humidity;BME280_pressure;Samples;Min_cycle;Max_cycle;Signal;HPM_P1;HPM_P2
2021/09/17 07:14:00;;;;;;;13.25;10.75;;;;;;;;;;12910174;23;20078;-85
2021/09/17 07:19:02;;;;;;;15.93;11.90;;;;;;;;;;12932189;23;20356;-84
2021/09/17 07:24:03;;;;;;;16.52;13.55;;;;;;;;;;12931690;23;20004;-84
2021/09/17 07:29:04;;;;;;;18.88;14.63;;;;;;;;;;12932771;23;20004;-85
2021/09/17 07:34:05;;;;;;;16.00;13.13;;;;;;;;;;12928231;23;20012;-85
2021/09/17 07:39:06;;;;;;;21.23;16.13;;;;;;;;;;12926474;23;20008;-85
2021/09/17 07:44:07;;;;;;;20.42;15.32;;;;;;;;;;12931378;23;20004;-85
2021/09/17 07:49:08;;;;;;;22.88;16.92;;;;;;;;;;12931764;23;20004;-84
2021/09/17 07:54:09;;;;;;;17.00;14.35;;;;;;;;;;12930242;23;20004;-86
2021/09/17 07:59:10;;;;;;;24.15;17.85;;;;;;;;;;12922824;23;20428;-86
2021/09/17 08:04:11;;;;;;;19.92;16.65;;;;;;;;;;12921389;23;20000;-86
2021/09/17 08:09:12;;;;;;;20.90;17.02;;;;;;;;;;12923083;23;20115;-86
2021/09/17 08:14:13;;;;;;;17.42;15.07;;;;;;;;;;12922604;23;20003;-86
2021/09/17 08:19:14;;;;;;;21.58;17.17;;;;;;;;;;12924779;23;20024;-87
2021/09/17 08:24:18;;;;;;;19.70;16.67;;;;;;;;;;12935619;23;20011;-88
2021/09/17 08:29:19;;;;;;;18.42;15.63;;;;;;;;;;12934196;23;20004;-88
2021/09/17 08:34:21;;;;;;;23.23;16.83;;;;;;;;;;12937159;23;20024;-88
2021/09/17 08:39:22;;;;;;;18.00;13.77;;;;;;;;;;12929576;23;20004;-88
2021/09/17 08:44:23;;;;;;;19.08;14.77;;;;;;;;;;12935576;23;20019;-87
2021/09/17 08:49:24;;;;;;;18.08;14.27;;;;;;;;;;12931835;23;20008;-88
2021/09/17 08:54:25;;;;;;;19.30;16.23;;;;;;;;;;12916362;23;20004;-87
2021/09/17 08:59:26;;;;;;;20.67;16.88;;;;;;;;;;12918535;23;20356;-86
2021/09/17 09:04:31;;;;;;;17.15;14.73;;;;;;;;;;12920125;23;20004;-88
2021/09/17 09:09:32;;;;;;;17.50;14.23;;;;;;;;;;12919284;23;20391;-87
2021/09/17 09:14:37;;;;;;;17.23;13.35;;;;;;;;;;12924359;23;20027;-86
2021/09/17 09:19:38;;;;;;;14.93;12.45;;;;;;;;;;12919093;23;20016;-87
2021/09/17 09:24:44;;;;;;;15.25;12.73;;;;;;;;;;12919553;23;20079;-84
2021/09/17 09:29:46;;;;;;;22.70;19.23;;;;;;;;;;12917498;23;20008;-84
2021/09/17 09:34:49;;;;;;;17.05;13.43;;;;;;;;;;12924932;23;20011;-85
2021/09/17 09:45:06;;;;;;;19.73;13.73;;;;;;;;;;12946903;22;20583;-83
2021/09/17 09:50:11;;;;;;;15.68;13.00;;;;;;;;;;12921025;23;20004;-81
2021/09/17 09:55:17;;;;;;;16.55;12.10;;;;;;;;;;12918729;23;20000;-82
2021/09/17 10:00:18;;;;;;;12.38;10.18;;;;;;;;;;12918010;23;20029;-83
2021/09/17 10:05:25;;;;;;;12.25;9.45;;;;;;;;;;12919696;23;20008;-84
2021/09/17 10:10:30;;;;;;;14.75;10.30;;;;;;;;;;12948627;23;20070;-85
2021/09/17 10:15:35;;;;;;;14.13;9.80;;;;;;;;;;12951012;23;20004;-82
2021/09/17 10:20:37;;;;;;;13.43;9.20;;;;;;;;;;12917054;23;20050;-81
2021/09/17 10:25:57;;;;;;;15.65;10.88;;;;;;;;;;12947539;23;20029;-83
2021/09/17 10:31:11;;;;;;;16.90;11.57;;;;;;;;;;12921127;23;20062;-84
2021/09/17 10:36:12;;;;;;;15.40;10.75;;;;;;;;;;12930434;23;20004;-82
2021/09/17 10:41:14;;;;;;;13.30;9.98;;;;;;;;;;12930607;23;20011;-82
2021/09/17 10:46:28;;;;;;;11.90;9.05;;;;;;;;;;12933536;23;20031;-82
2021/09/17 10:51:29;;;;;;;12.68;8.55;;;;;;;;;;12935980;23;20015;-82
2021/09/17 10:56:50;;;;;;;12.43;10.15;;;;;;;;;;12935363;23;20012;-83
2021/09/17 11:01:57;;;;;;;12.48;9.30;;;;;;;;;;12932903;23;20088;-83
2021/09/17 11:07:32;;;;;;;10.45;9.05;;;;;;;;;;12939745;23;20011;-83
2021/09/17 11:13:06;;;;;;;14.15;10.30;;;;;;;;;;12971552;22;20061;-83
2021/09/17 11:18:16;;;;;;;14.77;11.93;;;;;;;;;;12952458;22;20020;-82
2021/09/17 11:23:17;;;;;;;12.10;8.40;;;;;;;;;;12940727;22;20027;-84
2021/09/17 11:28:28;;;;;;;11.80;9.07;;;;;;;;;;12929583;23;20015;-83
2021/09/17 11:33:29;;;;;;;10.68;7.97;;;;;;;;;;12953088;22;20009;-84
2021/09/17 11:38:31;;;;;;;12.93;8.77;;;;;;;;;;12953767;22;20060;-84
2021/09/17 11:44:03;;;;;;;14.23;9.43;;;;;;;;;;12815019;23;20362;-85
2021/09/17 11:49:29;;;;;;;14.80;8.90;;;;;;;;;;12807895;23;20036;-88
2021/09/17 11:54:30;;;;;;;10.73;7.43;;;;;;;;;;12750646;23;20045;-86
2021/09/17 11:59:39;;;;;;;12.48;9.50;;;;;;;;;;12747227;23;20436;-85
2021/09/17 12:05:01;;;;;;;12.23;8.38;;;;;;;;;;12746931;23;20001;-85
2021/09/17 12:10:19;;;;;;;11.85;8.60;;;;;;;;;;12745476;23;20011;-85
2021/09/17 12:15:41;;;;;;;9.93;7.65;;;;;;;;;;12754071;23;20005;-86
2021/09/17 12:20:44;;;;;;;10.10;6.95;;;;;;;;;;12748447;23;20005;-85
2021/09/17 12:25:45;;;;;;;14.45;9.98;;;;;;;;;;12758277;23;20012;-85
2021/09/17 12:31:05;;;;;;;11.15;7.05;;;;;;;;;;12754021;23;20444;-86
2021/09/17 12:58:44;;;;;;;11.20;9.88;;;;;;;;;;12745264;23;20021;-87
2021/09/17 13:09:58;;;;;;;12.38;10.80;;;;;;;;;;12749043;23;20065;-87
2021/09/17 13:38:22;;;;;;;10.23;8.10;;;;;;;;;;12744307;23;20310;-86
2021/09/17 13:44:02;;;;;;;10.25;7.95;;;;;;;;;;12660090;23;20010;-87
2021/09/17 14:01:25;;;;;;;10.38;7.70;;;;;;;;;;12619563;23;20034;-87
2021/09/17 14:06:56;;;;;;;10.23;8.10;;;;;;;;;;12618504;23;20006;-86
2021/09/17 14:12:25;;;;;;;13.52;10.65;;;;;;;;;;12613503;23;20069;-88
2021/09/17 14:17:26;;;;;;;15.30;11.38;;;;;;;;;;12741229;23;20033;-87
2021/09/17 14:22:40;;;;;;;12.00;10.15;;;;;;;;;;12742627;23;20016;-87
2021/09/17 14:27:43;;;;;;;11.00;8.38;;;;;;;;;;12748029;23;20012;-88
2021/09/17 14:32:46;;;;;;;9.48;8.02;;;;;;;;;;12755631;23;20020;-87
2021/09/17 14:37:56;;;;;;;18.25;13.57;;;;;;;;;;12748710;23;20017;-88
2021/09/17 14:43:17;;;;;;;13.02;9.77;;;;;;;;;;12748968;23;20073;-88
2021/09/17 14:48:29;;;;;;;12.20;10.80;;;;;;;;;;12762064;23;20009;-90
2021/09/17 14:53:36;;;;;;;15.52;10.98;;;;;;;;;;12747990;23;20064;-87
2021/09/17 14:58:39;;;;;;;11.48;9.88;;;;;;;;;;12749641;23;20134;-87
2021/09/17 15:03:40;;;;;;;11.27;8.73;;;;;;;;;;12754594;23;20006;-88
2021/09/17 15:08:41;;;;;;;8.15;7.35;;;;;;;;;;12762648;23;20005;-88
2021/09/17 15:13:42;;;;;;;12.75;9.00;;;;;;;;;;12772431;23;20427;-88
2021/09/17 15:18:43;;;;;;;14.13;12.10;;;;;;;;;;12765100;23;19998;-86
2021/09/17 15:23:44;;;;;;;12.27;7.75;;;;;;;;;;12759434;23;20037;-87
2021/09/17 15:28:57;;;;;;;12.45;9.75;;;;;;;;;;12754872;23;20009;-88
2021/09/17 15:34:10;;;;;;;15.20;13.63;;;;;;;;;;12745523;23;20001;-86
2021/09/17 15:45:16;;;;;;;12.07;10.73;;;;;;;;;;12558822;23;20409;-88
2021/09/17 15:50:21;;;;;;;11.68;9.57;;;;;;;;;;12537155;23;20026;-86
2021/09/17 15:55:52;;;;;;;11.65;10.55;;;;;;;;;;12537630;23;20090;-87
2021/09/17 16:00:58;;;;;;;11.52;9.85;;;;;;;;;;12542283;23;20034;-87
2021/09/17 16:06:01;;;;;;;8.60;7.57;;;;;;;;;;12534330;23;20436;-87
2021/09/17 16:11:02;;;;;;;10.25;8.95;;;;;;;;;;12537746;23;20090;-84
2021/09/17 16:16:04;;;;;;;13.70;12.27;;;;;;;;;;12718640;23;20029;-86
2021/09/17 16:21:07;;;;;;;11.95;10.63;;;;;;;;;;12754160;23;20136;-87
2021/09/17 16:26:08;;;;;;;12.13;10.30;;;;;;;;;;12754204;23;20012;-85
2021/09/17 16:31:09;;;;;;;17.83;15.00;;;;;;;;;;12752599;23;20006;-87
2021/09/17 16:36:10;;;;;;;12.20;10.77;;;;;;;;;;12757297;23;19985;-88
2021/09/17 16:41:11;;;;;;;17.83;15.68;;;;;;;;;;12755138;23;20100;-86
2021/09/17 16:46:12;;;;;;;10.07;9.10;;;;;;;;;;12753861;23;20005;-86
2021/09/17 16:51:16;;;;;;;9.18;8.30;;;;;;;;;;12758790;23;20121;-87
2021/09/17 16:56:17;;;;;;;8.63;7.20;;;;;;;;;;12774346;23;19998;-90
2021/09/17 17:01:18;;;;;;;10.10;8.20;;;;;;;;;;12743346;23;20088;-88
2021/09/17 17:06:19;;;;;;;12.80;11.30;;;;;;;;;;12744197;23;20093;-89
2021/09/17 17:11:20;;;;;;;10.15;9.15;;;;;;;;;;12742361;23;20032;-89
2021/09/17 17:16:21;;;;;;;8.60;7.80;;;;;;;;;;12744383;23;20020;-89
2021/09/17 17:21:23;;;;;;;9.15;8.18;;;;;;;;;;12741477;23;20016;-89
2021/09/17 17:26:24;;;;;;;8.40;7.60;;;;;;;;;;12740017;23;20338;-89
2021/09/17 17:31:25;;;;;;;8.90;7.78;;;;;;;;;;12740020;23;20016;-89
2021/09/17 17:36:26;;;;;;;7.95;7.15;;;;;;;;;;12739552;23;20001;-89
2021/09/17 17:41:40;;;;;;;8.82;7.03;;;;;;;;;;12814888;23;20016;-86
2021/09/17 17:46:41;;;;;;;11.20;9.75;;;;;;;;;;12905931;23;20507;-86
2021/09/17 17:51:42;;;;;;;12.02;10.82;;;;;;;;;;12907660;23;20019;-86
2021/09/17 17:56:43;;;;;;;11.70;10.52;;;;;;;;;;12911047;23;20399;-86
2021/09/17 18:01:46;;;;;;;12.02;10.73;;;;;;;;;;12905879;23;20011;-87
2021/09/17 18:06:47;;;;;;;12.73;11.43;;;;;;;;;;12905421;23;20134;-86
2021/09/17 18:11:48;;;;;;;13.80;12.30;;;;;;;;;;12907910;22;20067;-87
2021/09/17 18:16:49;;;;;;;14.80;13.30;;;;;;;;;;12944878;23;20008;-87
2021/09/17 18:22:08;;;;;;;13.00;11.68;;;;;;;;;;12944241;23;20004;-87
2021/09/17 18:27:09;;;;;;;13.88;12.38;;;;;;;;;;12947624;23;20004;-87
2021/09/17 18:32:09;;;;;;;14.98;13.48;;;;;;;;;;12943185;23;20008;-87
2021/09/17 18:37:10;;;;;;;15.73;14.13;;;;;;;;;;12957458;22;19992;-86
2021/09/17 18:42:11;;;;;;;20.77;16.40;;;;;;;;;;12943541;23;20004;-89
2021/09/17 18:47:12;;;;;;;20.55;18.45;;;;;;;;;;12929804;23;20016;-89
2021/09/17 18:52:13;;;;;;;22.25;20.05;;;;;;;;;;12930935;23;20012;-89
2021/09/17 18:57:14;;;;;;;25.10;22.48;;;;;;;;;;12961305;23;20031;-89
2021/09/17 19:02:15;;;;;;;26.15;23.45;;;;;;;;;;12971423;23;20000;-89
2021/09/17 19:07:17;;;;;;;28.45;25.55;;;;;;;;;;12936178;23;20008;-89
2021/09/17 19:12:18;;;;;;;26.85;24.05;;;;;;;;;;12930463;23;20332;-89
2021/09/17 19:17:19;;;;;;;35.35;31.75;;;;;;;;;;12929941;23;20001;-89
2021/09/17 19:22:21;;;;;;;34.42;30.75;;;;;;;;;;12933765;23;20032;-89
2021/09/17 19:27:22;;;;;;;36.80;33.05;;;;;;;;;;12940569;23;20301;-88
2021/09/17 19:32:23;;;;;;;34.83;31.23;;;;;;;;;;12941583;23;20004;-88
2021/09/17 19:37:24;;;;;;;36.30;32.60;;;;;;;;;;12930883;23;20477;-88
2021/09/17 19:42:25;;;;;;;34.20;30.70;;;;;;;;;;12929415;23;20004;-89
2021/09/17 19:47:26;;;;;;;33.90;30.38;;;;;;;;;;12928719;23;20440;-89
2021/09/17 19:52:27;;;;;;;35.63;31.95;;;;;;;;;;12928444;23;20058;-89
2021/09/17 19:57:27;;;;;;;33.03;29.55;;;;;;;;;;12928183;23;20008;-89
2021/09/17 20:02:28;;;;;;;30.02;26.92;;;;;;;;;;12928676;23;20011;-88
2021/09/17 20:07:29;;;;;;;27.13;24.35;;;;;;;;;;12927234;23;20011;-88
2021/09/17 20:12:30;;;;;;;26.65;24.08;;;;;;;;;;12928986;23;20012;-88
2021/09/17 20:17:31;;;;;;;25.98;23.10;;;;;;;;;;12931089;23;20004;-88
2021/09/17 20:22:32;;;;;;;26.55;23.92;;;;;;;;;;12936816;23;20007;-88
2021/09/17 20:27:34;;;;;;;25.75;23.15;;;;;;;;;;12929007;23;20030;-88
2021/09/17 20:32:35;;;;;;;25.38;22.77;;;;;;;;;;12940997;23;20004;-86
2021/09/17 20:37:36;;;;;;;25.48;22.90;;;;;;;;;;12963498;23;20048;-87
2021/09/17 20:42:37;;;;;;;24.48;21.98;;;;;;;;;;12945589;23;20023;-88
2021/09/17 20:47:39;;;;;;;23.27;20.98;;;;;;;;;;12927809;23;20313;-88
2021/09/17 20:52:40;;;;;;;20.63;18.63;;;;;;;;;;12927950;23;20340;-88
2021/09/17 20:57:42;;;;;;;19.83;17.88;;;;;;;;;;12926177;23;20012;-88
2021/09/17 21:02:44;;;;;;;20.70;18.60;;;;;;;;;;12925739;23;20011;-89
2021/09/17 21:07:45;;;;;;;20.67;18.58;;;;;;;;;;12926813;23;20030;-88
2021/09/17 21:12:49;;;;;;;19.52;17.63;;;;;;;;;;12925355;23;20348;-89
2021/09/17 21:17:50;;;;;;;20.42;18.33;;;;;;;;;;12925534;23;20007;-89
2021/09/17 21:22:56;;;;;;;18.80;17.00;;;;;;;;;;12926096;23;20003;-89
2021/09/17 21:27:57;;;;;;;23.50;21.17;;;;;;;;;;12928924;23;20360;-89
2021/09/17 21:32:58;;;;;;;20.42;18.42;;;;;;;;;;12930740;23;19996;-89
2021/09/17 21:37:59;;;;;;;18.25;16.45;;;;;;;;;;12926621;23;20060;-89
2021/09/17 21:43:20;;;;;;;19.30;17.30;;;;;;;;;;12928371;23;19992;-87
2021/09/17 21:48:24;;;;;;;17.80;16.00;;;;;;;;;;12926288;23;20528;-87
2021/09/17 21:53:25;;;;;;;15.45;13.95;;;;;;;;;;12928149;23;20083;-86
2021/09/17 21:58:26;;;;;;;16.83;15.15;;;;;;;;;;12933010;22;19996;-87
2021/09/17 22:03:27;;;;;;;16.85;15.07;;;;;;;;;;12952107;22;20012;-87
2021/09/17 22:08:28;;;;;;;18.17;16.27;;;;;;;;;;12931973;23;20039;-86
2021/09/17 22:13:29;;;;;;;16.52;14.98;;;;;;;;;;12927712;23;20011;-86
2021/09/17 22:18:31;;;;;;;15.80;14.20;;;;;;;;;;12946248;22;20004;-86
2021/09/17 22:23:32;;;;;;;13.30;12.00;;;;;;;;;;12926468;23;20004;-86
2021/09/17 22:28:33;;;;;;;13.88;12.40;;;;;;;;;;12927507;23;20019;-87
2021/09/17 22:33:34;;;;;;;11.95;10.85;;;;;;;;;;12929919;23;20000;-86
2021/09/17 22:38:35;;;;;;;15.30;13.70;;;;;;;;;;12944809;23;20047;-87
2021/09/17 22:43:36;;;;;;;16.20;14.57;;;;;;;;;;12945865;23;20055;-87
2021/09/17 22:48:37;;;;;;;14.20;12.90;;;;;;;;;;12949867;23;20008;-87
2021/09/17 22:53:38;;;;;;;16.40;14.90;;;;;;;;;;12959362;23;20004;-87
2021/09/17 22:58:38;;;;;;;13.80;12.45;;;;;;;;;;12945876;23;20039;-87
2021/09/17 23:03:42;;;;;;;11.45;10.35;;;;;;;;;;12934513;23;20004;-89
2021/09/17 23:08:43;;;;;;;12.23;11.02;;;;;;;;;;12931241;23;20010;-89
2021/09/17 23:13:44;;;;;;;13.90;12.57;;;;;;;;;;12943302;23;20348;-88
2021/09/17 23:18:45;;;;;;;13.50;12.20;;;;;;;;;;12929373;23;20092;-89
2021/09/17 23:23:46;;;;;;;15.15;13.75;;;;;;;;;;12929774;23;20000;-89
2021/09/17 23:28:47;;;;;;;16.13;14.63;;;;;;;;;;12928162;23;20008;-88
2021/09/17 23:33:49;;;;;;;13.10;11.82;;;;;;;;;;12927189;23;20376;-89
2021/09/17 23:38:50;;;;;;;11.68;10.57;;;;;;;;;;12928967;23;20008;-89
2021/09/17 23:43:51;;;;;;;14.32;12.82;;;;;;;;;;12927264;23;20008;-89
2021/09/17 23:48:52;;;;;;;15.50;13.93;;;;;;;;;;12933871;23;20056;-86
2021/09/17 23:53:58;;;;;;;12.95;11.70;;;;;;;;;;12943702;23;20000;-87
2021/09/17 23:59:04;;;;;;;15.25;13.82;;;;;;;;;;12943666;23;20027;-87
